Time;durP1;ratioP1;P1;durP2;ratioP2;P2;SDS_P1;SDS_P2;PMS_P1;PMS_P2;Temp;Humidity;BMP_temperature;BMP_pressure;BME280_temperature;BME280_humidity;BME280_pressure;Samples;Min_cycle;Max_cycle;Signal;HPM_P1;HPM_P2
2021/01/06 00:01:05;;;;;;;0.00;0.00;;;15.40;57.90;;;;;;4214252;28;20052;-40
2021/01/06 00:03:27;;;;;;;0.00;0.00;;;15.40;57.90;;;;;;4214267;28;20109;-40
2021/01/06 00:05:51;;;;;;;0.90;0.60;;;15.40;57.90;;;;;;4213523;28;20055;-40
2021/01/06 00:08:12;;;;;;;0.00;0.00;;;15.30;58.10;;;;;;4213977;28;20109;-40
2021/01/06 00:10:34;;;;;;;0.00;0.00;;;15.20;58.40;;;;;;4214135;28;20120;-40
2021/01/06 00:12:56;;;;;;;0.00;0.00;;;15.10;58.60;;;;;;4214606;28;20109;-40
2021/01/06 00:15:20;;;;;;;0.00;0.00;;;15.10;58.90;;;;;;4213778;28;20113;-40
2021/01/06 00:17:41;;;;;;;0.20;0.20;;;15.00;58.80;;;;;;4213903;28;20832;-40
2021/01/06 00:20:02;;;;;;;0.00;0.00;;;15.10;58.60;;;;;;4212498;28;20078;-40
2021/01/06 00:22:23;;;;;;;0.00;0.00;;;15.10;58.60;;;;;;4214528;28;20052;-40
2021/01/06 00:24:44;;;;;;;0.70;0.70;;;15.20;58.60;;;;;;4213985;28;20479;-40
2021/01/06 00:27:05;;;;;;;0.10;0.10;;;15.10;58.70;;;;;;4212420;28;20060;-40
2021/01/06 00:29:27;;;;;;;0.85;0.85;;;15.10;58.80;;;;;;4213853;28;20048;-39
2021/01/06 00:31:48;;;;;;;0.00;0.00;;;15.00;59.00;;;;;;4214216;28;20062;-41
2021/01/06 00:34:09;;;;;;;0.00;0.00;;;14.90;59.20;;;;;;4213677;28;20130;-41
2021/01/06 00:36:30;;;;;;;0.00;0.00;;;14.90;59.40;;;;;;4213299;28;20055;-40
2021/01/06 00:38:53;;;;;;;0.00;0.00;;;14.80;59.50;;;;;;4213627;28;20081;-40
2021/01/06 00:41:14;;;;;;;0.00;0.00;;;14.90;59.90;;;;;;4213666;28;20498;-40
2021/01/06 00:43:35;;;;;;;0.00;0.00;;;15.10;59.50;;;;;;4213827;28;20080;-41
2021/01/06 00:45:56;;;;;;;0.00;0.00;;;15.20;58.90;;;;;;4213155;28;20306;-40
2021/01/06 00:48:17;;;;;;;0.00;0.00;;;15.30;58.60;;;;;;4212234;28;20052;-40
2021/01/06 00:50:40;;;;;;;0.00;0.00;;;15.30;58.50;;;;;;4212185;28;20060;-39
2021/01/06 00:53:02;;;;;;;0.08;0.08;;;15.30;58.70;;;;;;4213574;28;20051;-40
2021/01/06 00:55:24;;;;;;;0.05;0.05;;;15.40;58.40;;;;;;4213252;28;20048;-40
2021/01/06 00:57:46;;;;;;;0.00;0.00;;;15.50;58.10;;;;;;4211991;28;20071;-40
2021/01/06 01:00:11;;;;;;;0.00;0.00;;;15.60;57.90;;;;;;4212461;28;20052;-41
2021/01/06 01:02:32;;;;;;;0.00;0.00;;;15.60;57.90;;;;;;4212492;28;20052;-41
2021/01/06 01:04:54;;;;;;;0.10;0.10;;;15.60;57.90;;;;;;4212579;28;20052;-41
2021/01/06 01:07:15;;;;;;;0.00;0.00;;;15.60;58.00;;;;;;4213485;28;20048;-41
2021/01/06 01:09:36;;;;;;;0.10;0.10;;;15.50;58.00;;;;;;4212884;28;20506;-40
2021/01/06 01:11:57;;;;;;;0.00;0.00;;;15.50;58.30;;;;;;4213090;28;20078;-43
2021/01/06 01:14:18;;;;;;;0.00;0.00;;;15.50;58.20;;;;;;4213565;28;20806;-42
2021/01/06 01:16:42;;;;;;;0.00;0.00;;;15.60;58.10;;;;;;4196463;28;20082;-41
2021/01/06 01:19:03;;;;;;;0.00;0.00;;;15.60;58.10;;;;;;4196149;28;20083;-44
2021/01/06 01:21:31;;;;;;;0.00;0.00;;;15.50;58.10;;;;;;4196612;28;20044;-42
2021/01/06 01:23:52;;;;;;;0.20;0.20;;;15.50;58.20;;;;;;4196259;28;20053;-41
2021/01/06 01:26:13;;;;;;;0.00;0.00;;;15.50;58.30;;;;;;4195947;28;20056;-43
2021/01/06 01:28:34;;;;;;;0.00;0.00;;;15.50;58.40;;;;;;4195992;28;20048;-41
2021/01/06 01:30:56;;;;;;;0.00;0.00;;;15.40;58.50;;;;;;4195981;28;20519;-41
2021/01/06 01:33:21;;;;;;;0.00;0.00;;;15.40;58.60;;;;;;4200321;28;20075;-41
2021/01/06 01:35:44;;;;;;;0.00;0.00;;;15.50;58.30;;;;;;4212277;28;20048;-41
2021/01/06 01:38:06;;;;;;;0.55;0.55;;;15.70;57.80;;;;;;4212152;28;20117;-40
2021/01/06 01:40:31;;;;;;;0.85;0.65;;;15.80;57.60;;;;;;4212665;28;20089;-40
2021/01/06 01:42:54;;;;;;;0.00;0.00;;;15.80;57.50;;;;;;4212702;28;20093;-40
2021/01/06 01:45:15;;;;;;;0.05;0.05;;;15.70;57.60;;;;;;4212775;28;20044;-40
2021/01/06 01:47:43;;;;;;;0.00;0.00;;;15.70;57.80;;;;;;4212445;28;20702;-41
2021/01/06 01:50:06;;;;;;;0.00;0.00;;;15.80;57.80;;;;;;4212341;28;20056;-40
2021/01/06 01:52:34;;;;;;;0.65;0.65;;;15.90;57.70;;;;;;4212575;28;20134;-40
2021/01/06 01:54:57;;;;;;;0.80;0.80;;;16.00;57.20;;;;;;4211494;28;20426;-40
2021/01/06 01:57:25;;;;;;;0.00;0.00;;;16.20;56.80;;;;;;4212387;28;20059;-40
2021/01/06 01:59:51;;;;;;;0.65;0.22;;;16.30;56.40;;;;;;4211535;28;20054;-40
2021/01/06 02:02:16;;;;;;;0.00;0.00;;;16.40;56.10;;;;;;4212473;28;20460;-41
2021/01/06 02:04:42;;;;;;;0.00;0.00;;;16.40;55.90;;;;;;4211982;28;20490;-41
2021/01/06 02:07:09;;;;;;;0.00;0.00;;;16.40;56.20;;;;;;4212185;28;20047;-40
2021/01/06 02:09:37;;;;;;;0.00;0.00;;;16.30;56.30;;;;;;4212889;28;20070;-41
2021/01/06 02:12:08;;;;;;;0.10;0.10;;;16.30;56.40;;;;;;4211982;28;20048;-41
2021/01/06 02:14:35;;;;;;;0.00;0.00;;;16.20;57.10;;;;;;4212385;28;20060;-41
2021/01/06 02:17:04;;;;;;;0.00;0.00;;;16.20;56.40;;;;;;4212177;28;20135;-41
2021/01/06 02:19:30;;;;;;;0.00;0.00;;;16.20;56.70;;;;;;4211989;28;20089;-41
2021/01/06 02:21:52;;;;;;;0.00;0.00;;;16.10;56.90;;;;;;4212685;28;20048;-41
2021/01/06 02:24:13;;;;;;;0.00;0.00;;;15.90;57.10;;;;;;4211789;28;20040;-40
2021/01/06 02:26:35;;;;;;;0.30;0.22;;;15.90;57.50;;;;;;4211925;28;20079;-40
2021/01/06 02:28:57;;;;;;;0.00;0.00;;;16.00;57.30;;;;;;4212185;28;20071;-40
2021/01/06 02:31:19;;;;;;;0.00;0.00;;;16.10;56.80;;;;;;4212298;28;20132;-40
2021/01/06 02:33:40;;;;;;;0.47;0.47;;;16.10;56.70;;;;;;4212088;28;20052;-40
2021/01/06 02:36:02;;;;;;;0.52;0.52;;;16.10;56.70;;;;;;4211516;28;20060;-40
2021/01/06 02:38:24;;;;;;;0.08;0.08;;;16.00;56.80;;;;;;4211734;28;20454;-40
2021/01/06 02:40:46;;;;;;;0.00;0.00;;;15.90;57.00;;;;;;4212424;28;20123;-40
2021/01/06 02:43:07;;;;;;;0.10;0.10;;;15.90;57.20;;;;;;4211959;28;20044;-40
2021/01/06 02:45:28;;;;;;;0.00;0.00;;;15.80;57.50;;;;;;4211800;28;20514;-40
2021/01/06 02:47:50;;;;;;;0.55;0.55;;;15.80;57.50;;;;;;4211960;28;20056;-40
2021/01/06 02:50:13;;;;;;;0.03;0.03;;;15.80;57.30;;;;;;4214668;28;20066;-40
2021/01/06 02:52:38;;;;;;;0.00;0.00;;;15.90;57.20;;;;;;4215688;28;20060;-40
2021/01/06 02:55:02;;;;;;;0.00;0.00;;;15.90;57.30;;;;;;4215213;28;20142;-40
2021/01/06 02:57:24;;;;;;;0.08;0.08;;;15.80;57.20;;;;;;4215404;28;20055;-40
2021/01/06 02:59:47;;;;;;;0.25;0.08;;;15.90;57.20;;;;;;4215092;28;20040;-41
2021/01/06 03:02:09;;;;;;;0.55;0.55;;;15.90;57.10;;;;;;4214703;28;20056;-43
2021/01/06 03:04:34;;;;;;;0.00;0.00;;;15.80;57.20;;;;;;4215469;28;20071;-40
2021/01/06 03:06:59;;;;;;;0.00;0.00;;;15.80;57.30;;;;;;4214565;28;20058;-40
2021/01/06 03:09:28;;;;;;;1.08;1.08;;;15.80;57.10;;;;;;4215145;28;20506;-41
2021/01/06 03:11:50;;;;;;;0.45;0.45;;;15.80;57.10;;;;;;4215028;28;20056;-41
2021/01/06 03:14:11;;;;;;;0.10;0.10;;;15.80;57.10;;;;;;4215021;28;20093;-41
2021/01/06 03:16:32;;;;;;;0.35;0.35;;;15.80;57.30;;;;;;4215062;28;20055;-40
2021/01/06 03:18:55;;;;;;;0.47;0.47;;;15.90;57.10;;;;;;4213396;28;20135;-40
2021/01/06 03:21:16;;;;;;;0.08;0.08;;;16.00;56.70;;;;;;4215136;28;20134;-40
2021/01/06 03:23:41;;;;;;;0.00;0.00;;;16.00;56.50;;;;;;4214838;28;20491;-40
2021/01/06 03:26:05;;;;;;;0.30;0.30;;;16.00;56.70;;;;;;4214452;28;20056;-40
2021/01/06 03:28:29;;;;;;;0.00;0.00;;;16.00;56.70;;;;;;4214364;28;20056;-40
2021/01/06 03:30:51;;;;;;;0.03;0.03;;;16.00;56.60;;;;;;4215261;28;20056;-40
2021/01/06 03:33:19;;;;;;;0.00;0.00;;;16.00;56.60;;;;;;4214861;28;20445;-40
2021/01/06 03:35:43;;;;;;;0.00;0.00;;;15.90;56.90;;;;;;4196675;28;20048;-40
2021/01/06 03:38:11;;;;;;;0.00;0.00;;;15.80;57.10;;;;;;4198063;28;20506;-40
2021/01/06 03:40:36;;;;;;;0.15;0.15;;;15.90;57.90;;;;;;4197771;28;20064;-40
2021/01/06 03:42:58;;;;;;;0.00;0.00;;;15.90;57.10;;;;;;4197763;28;20457;-40
2021/01/06 03:45:24;;;;;;;0.10;0.10;;;15.90;57.10;;;;;;4212983;28;20421;-40
2021/01/06 03:47:54;;;;;;;0.10;0.10;;;15.90;57.10;;;;;;4214808;28;20051;-40
2021/01/06 03:50:24;;;;;;;8.70;0.45;;;15.90;57.80;;;;;;4214693;28;20131;-40
2021/01/06 03:53:03;;;;;;;0.38;0.38;;;16.00;57.00;;;;;;4214792;28;20055;-40
2021/01/06 03:55:35;;;;;;;0.00;0.00;;;16.00;56.90;;;;;;4214340;28;20052;-41
2021/01/06 03:57:57;;;;;;;0.00;0.00;;;16.00;57.10;;;;;;4205602;28;20215;-41
2021/01/06 04:00:40;;;;;;;0.10;0.10;;;16.00;57.20;;;;;;4214323;28;20141;-41
2021/01/06 04:03:09;;;;;;;0.00;0.00;;;16.10;57.10;;;;;;4214153;28;20055;-41
2021/01/06 04:05:30;;;;;;;0.25;0.25;;;16.00;57.20;;;;;;4213240;28;20052;-40
2021/01/06 04:07:53;;;;;;;0.00;0.00;;;16.00;57.40;;;;;;4213157;28;20044;-40
2021/01/06 04:10:18;;;;;;;0.32;0.32;;;16.00;57.30;;;;;;4214161;28;20074;-40
2021/01/06 04:12:40;;;;;;;0.00;0.00;;;16.20;57.00;;;;;;4214346;28;20468;-41
2021/01/06 04:15:02;;;;;;;0.00;0.00;;;16.30;56.70;;;;;;4213687;28;20059;-40
2021/01/06 04:17:28;;;;;;;0.43;0.43;;;16.30;56.60;;;;;;4213653;28;20119;-40
2021/01/06 04:19:51;;;;;;;0.00;0.00;;;16.30;56.60;;;;;;4213794;28;20060;-40
2021/01/06 04:22:14;;;;;;;0.00;0.00;;;16.30;56.60;;;;;;4214307;28;20056;-40
2021/01/06 04:24:34;;;;;;;0.10;0.10;;;16.30;56.50;;;;;;4213874;28;20456;-40
2021/01/06 04:26:55;;;;;;;0.00;0.00;;;16.30;56.70;;;;;;4213465;28;20101;-40
2021/01/06 04:29:16;;;;;;;0.00;0.00;;;16.20;56.80;;;;;;4214162;28;20090;-40
2021/01/06 04:31:37;;;;;;;0.00;0.00;;;16.20;56.80;;;;;;4214300;28;20506;-40
2021/01/06 04:33:58;;;;;;;0.00;0.00;;;16.30;56.80;;;;;;4214140;28;20426;-42
2021/01/06 04:36:25;;;;;;;0.00;0.00;;;16.40;56.50;;;;;;4213751;28;20076;-40
2021/01/06 04:38:51;;;;;;;0.00;0.00;;;16.40;56.40;;;;;;4212545;28;20121;-40
2021/01/06 04:41:24;;;;;;;0.45;0.45;;;16.50;56.20;;;;;;4213538;28;20135;-40
2021/01/06 04:43:52;;;;;;;0.00;0.00;;;16.50;56.20;;;;;;4213536;28;20059;-42
2021/01/06 04:46:34;;;;;;;0.00;0.00;;;16.60;56.20;;;;;;4213449;28;20536;-43
2021/01/06 04:49:07;;;;;;;0.00;0.00;;;16.60;56.10;;;;;;4213048;28;20052;-41
2021/01/06 04:51:52;;;;;;;0.65;0.65;;;16.60;56.20;;;;;;4213714;28;20059;-42
2021/01/06 04:54:32;;;;;;;0.00;0.00;;;16.50;56.30;;;;;;4214097;28;20048;-41
2021/01/06 04:57:10;;;;;;;0.73;0.73;;;16.40;56.50;;;;;;4213373;28;20051;-40
2021/01/06 04:59:55;;;;;;;0.00;0.00;;;16.30;56.80;;;;;;4211924;28;20075;-40
2021/01/06 05:02:24;;;;;;;0.08;0.08;;;16.50;56.40;;;;;;4213163;28;20058;-40
2021/01/06 05:05:03;;;;;;;0.00;0.00;;;16.60;56.10;;;;;;4213015;28;20498;-40
2021/01/06 05:07:37;;;;;;;0.00;0.00;;;16.60;55.90;;;;;;4201769;28;20055;-40
2021/01/06 05:10:07;;;;;;;0.00;0.00;;;16.60;55.90;;;;;;4213256;28;20048;-40
2021/01/06 05:12:34;;;;;;;0.00;0.00;;;16.60;55.90;;;;;;4212889;28;20490;-40
2021/01/06 05:15:17;;;;;;;0.00;0.00;;;16.60;56.00;;;;;;4213582;28;20123;-40
2021/01/06 05:17:39;;;;;;;0.60;0.60;;;16.50;56.30;;;;;;4213303;28;20078;-40
2021/01/06 05:20:01;;;;;;;0.10;0.10;;;16.40;56.60;;;;;;4213135;28;20056;-40
2021/01/06 05:22:22;;;;;;;0.00;0.00;;;16.30;56.90;;;;;;4212826;28;20048;-40
2021/01/06 05:24:45;;;;;;;0.20;0.20;;;16.30;56.80;;;;;;4213141;28;20048;-40
2021/01/06 05:27:24;;;;;;;0.00;0.00;;;16.40;56.60;;;;;;4213388;28;20123;-41
2021/01/06 05:29:47;;;;;;;0.00;0.00;;;16.50;56.40;;;;;;4212465;28;20083;-40
2021/01/06 05:32:16;;;;;;;0.13;0.13;;;16.40;56.40;;;;;;4213427;28;20418;-40
2021/01/06 05:34:37;;;;;;;0.00;0.00;;;16.50;56.50;;;;;;4212548;28;20449;-41
2021/01/06 05:36:59;;;;;;;0.00;0.00;;;16.40;56.40;;;;;;4212638;28;20496;-41
2021/01/06 05:39:23;;;;;;;0.00;0.00;;;16.40;56.50;;;;;;4212538;28;20497;-41
2021/01/06 05:41:46;;;;;;;0.30;0.30;;;16.30;56.70;;;;;;4212060;28;20052;-41
2021/01/06 05:44:07;;;;;;;0.00;0.00;;;16.30;56.90;;;;;;4213048;28;20055;-41
2021/01/06 05:46:31;;;;;;;0.00;0.00;;;16.30;56.90;;;;;;4212988;28;20514;-42
2021/01/06 05:48:55;;;;;;;0.00;0.00;;;16.20;57.00;;;;;;4212321;28;20060;-41
2021/01/06 05:51:23;;;;;;;0.00;0.00;;;16.20;57.10;;;;;;4211723;28;20131;-42
2021/01/06 05:53:47;;;;;;;0.10;0.10;;;16.30;57.00;;;;;;4212650;28;20517;-42
2021/01/06 05:56:25;;;;;;;0.00;0.00;;;16.40;57.30;;;;;;4212311;28;20059;-43
2021/01/06 05:58:54;;;;;;;0.00;0.00;;;16.50;56.40;;;;;;4212438;28;20165;-40
2021/01/06 06:01:24;;;;;;;0.00;0.00;;;16.50;57.10;;;;;;4212289;28;20048;-40
2021/01/06 06:04:14;;;;;;;0.05;0.05;;;16.40;56.40;;;;;;4212291;28;20126;-41
2021/01/06 06:06:46;;;;;;;0.00;0.00;;;16.40;56.60;;;;;;4212394;28;20052;-40
2021/01/06 06:09:17;;;;;;;0.65;0.40;;;16.30;56.90;;;;;;4211673;28;20489;-40
2021/01/06 06:12:13;;;;;;;0.00;0.00;;;16.20;57.00;;;;;;4212766;28;20571;-40
2021/01/06 06:15:24;;;;;;;0.00;0.00;;;16.30;57.00;;;;;;4160845;28;20057;-40
2021/01/06 06:18:08;;;;;;;0.00;0.00;;;16.30;56.70;;;;;;4160069;28;20061;-41
2021/01/06 06:20:44;;;;;;;0.00;0.00;;;16.30;56.80;;;;;;4194549;28;20495;-41
2021/01/06 06:23:21;;;;;;;0.00;0.00;;;16.30;56.90;;;;;;4195653;28;20132;-40
2021/01/06 06:25:53;;;;;;;0.00;0.00;;;16.30;56.90;;;;;;4207293;28;20055;-41
2021/01/06 06:28:21;;;;;;;0.00;0.00;;;16.10;57.10;;;;;;4215961;28;20077;-50
2021/01/06 06:30:52;;;;;;;0.00;0.00;;;16.10;57.40;;;;;;4216197;28;20140;-42
2021/01/06 06:33:15;;;;;;;;;;;16.10;57.50;;;;;;4216373;28;20081;-43
2021/01/06 06:35:38;;;;;;;0.00;0.00;;;16.10;57.30;;;;;;4215392;28;20389;-40
2021/01/06 06:38:02;;;;;;;0.00;0.00;;;16.10;57.10;;;;;;4215409;28;20064;-40
2021/01/06 06:40:24;;;;;;;0.00;0.00;;;16.10;57.10;;;;;;4215269;28;20048;-40
2021/01/06 06:42:56;;;;;;;0.00;0.00;;;16.10;57.90;;;;;;4215208;28;20081;-40
2021/01/06 06:45:43;;;;;;;0.70;0.50;;;16.10;57.20;;;;;;4215457;28;20052;-41
2021/01/06 06:48:14;;;;;;;0.00;0.00;;;16.30;56.80;;;;;;4215417;28;20052;-40
2021/01/06 06:51:03;;;;;;;0.00;0.00;;;16.60;56.20;;;;;;4215458;28;20065;-40
2021/01/06 06:53:36;;;;;;;0.00;0.00;;;16.70;55.90;;;;;;4215767;28;20052;-40
2021/01/06 06:56:09;;;;;;;0.10;0.10;;;16.80;55.70;;;;;;4214634;28;20452;-40
2021/01/06 06:58:39;;;;;;;0.20;0.20;;;16.70;55.70;;;;;;4215466;28;20052;-40
2021/01/06 07:01:07;;;;;;;0.00;0.00;;;16.70;55.70;;;;;;4214553;28;20080;-41
2021/01/06 07:03:30;;;;;;;0.00;0.00;;;16.70;55.80;;;;;;4213774;28;20164;-39
2021/01/06 07:05:55;;;;;;;0.00;0.00;;;16.70;55.90;;;;;;4215087;28;20128;-40
2021/01/06 07:08:20;;;;;;;0.00;0.00;;;16.60;56.10;;;;;;4215516;28;20059;-40
2021/01/06 07:10:45;;;;;;;0.00;0.00;;;16.60;56.30;;;;;;4215479;28;20498;-41
2021/01/06 07:13:09;;;;;;;0.73;0.73;;;16.50;56.50;;;;;;4215207;28;20052;-40
2021/01/06 07:15:33;;;;;;;0.00;0.00;;;16.50;57.10;;;;;;4214743;28;20135;-41
2021/01/06 07:17:55;;;;;;;0.00;0.00;;;16.40;58.30;;;;;;4214424;28;20079;-40
2021/01/06 07:20:32;;;;;;;0.15;0.15;;;16.40;58.10;;;;;;4214851;28;20135;-40
2021/01/06 07:22:57;;;;;;;0.00;0.00;;;16.40;58.10;;;;;;4215035;28;20152;-40
2021/01/06 07:25:26;;;;;;;0.00;0.00;;;16.30;58.10;;;;;;4215049;28;20076;-40
2021/01/06 07:27:51;;;;;;;0.00;0.00;;;16.20;58.40;;;;;;4216029;28;20044;-41
2021/01/06 07:30:27;;;;;;;0.10;0.10;;;16.10;58.60;;;;;;4205524;28;20040;-40
2021/01/06 07:32:50;;;;;;;0.00;0.00;;;16.10;58.70;;;;;;4214377;28;20047;-40
2021/01/06 07:35:20;;;;;;;0.00;0.00;;;16.00;58.80;;;;;;4212170;28;20468;-40
2021/01/06 07:37:45;;;;;;;0.10;0.10;;;16.00;58.90;;;;;;4214470;28;21125;-40
2021/01/06 07:40:21;;;;;;;0.10;0.10;;;16.20;58.50;;;;;;4214648;28;20131;-40
2021/01/06 07:42:45;;;;;;;1.48;1.35;;;16.40;57.90;;;;;;4214061;28;20079;-40
2021/01/06 07:45:40;;;;;;;0.00;0.00;;;16.40;57.70;;;;;;4214575;28;20105;-40
2021/01/06 07:48:41;;;;;;;0.00;0.00;;;16.40;58.40;;;;;;4162775;28;20589;-41
2021/01/06 07:51:10;;;;;;;0.00;0.00;;;16.50;57.50;;;;;;4146633;28;20741;-41
2021/01/06 07:53:40;;;;;;;0.00;0.00;;;16.60;57.10;;;;;;4198412;28;20056;-41
2021/01/06 07:56:06;;;;;;;0.00;0.00;;;16.60;57.00;;;;;;4213923;28;20514;-40
2021/01/06 07:58:33;;;;;;;0.00;0.00;;;16.60;57.10;;;;;;4213564;28;20047;-41
2021/01/06 08:01:02;;;;;;;0.88;0.80;;;16.60;57.00;;;;;;4214228;28;20059;-41
2021/01/06 08:03:29;;;;;;;0.17;0.17;;;16.60;56.90;;;;;;4212639;28;20052;-40
2021/01/06 08:05:57;;;;;;;0.55;0.55;;;16.50;57.00;;;;;;4208687;28;20048;-40
2021/01/06 08:08:18;;;;;;;0.00;0.00;;;16.50;57.20;;;;;;4209098;28;20146;-41
2021/01/06 08:10:44;;;;;;;0.00;0.00;;;16.50;57.30;;;;;;4214203;28;20044;-41
2021/01/06 08:13:15;;;;;;;0.45;0.45;;;16.50;57.40;;;;;;4207759;28;20048;-40
2021/01/06 08:15:36;;;;;;;0.00;0.00;;;16.40;57.50;;;;;;4213949;28;20052;-40
2021/01/06 08:18:04;;;;;;;0.00;0.00;;;16.40;57.80;;;;;;4213788;28;20051;-40
2021/01/06 08:20:29;;;;;;;0.00;0.00;;;16.40;57.60;;;;;;4208117;28;20055;-40
2021/01/06 08:22:58;;;;;;;0.57;0.57;;;16.40;57.40;;;;;;4213347;28;20137;-40
2021/01/06 08:25:22;;;;;;;0.00;0.00;;;16.40;57.50;;;;;;4202868;28;20486;-39
2021/01/06 08:27:44;;;;;;;0.00;0.00;;;16.30;58.30;;;;;;4206738;28;20050;-40
2021/01/06 08:30:12;;;;;;;0.75;0.75;;;16.50;57.30;;;;;;4207212;28;20066;-40
2021/01/06 08:32:33;;;;;;;0.00;0.00;;;16.60;56.80;;;;;;4213734;28;20059;-40
2021/01/06 08:34:57;;;;;;;0.00;0.00;;;16.70;56.50;;;;;;4213585;28;20048;-40
2021/01/06 08:37:24;;;;;;;0.00;0.00;;;16.60;56.30;;;;;;4213098;28;20490;-40
2021/01/06 08:39:54;;;;;;;0.00;0.00;;;16.50;56.30;;;;;;4197259;28;20048;-40
2021/01/06 08:42:19;;;;;;;0.00;0.00;;;16.40;56.50;;;;;;4202134;28;20048;-40
2021/01/06 08:44:45;;;;;;;0.00;0.00;;;16.20;56.70;;;;;;4210160;28;20106;-41
2021/01/06 08:47:09;;;;;;;0.00;0.00;;;16.00;56.80;;;;;;4196143;28;20122;-40
2021/01/06 08:49:32;;;;;;;0.00;0.00;;;15.90;57.00;;;;;;4205198;28;20063;-41
2021/01/06 08:51:56;;;;;;;0.10;0.10;;;15.90;57.10;;;;;;4213206;28;20048;-40
2021/01/06 08:54:28;;;;;;;0.00;0.00;;;15.80;57.30;;;;;;4213381;28;20322;-41
2021/01/06 08:57:04;;;;;;;0.10;0.10;;;15.90;57.30;;;;;;4197873;28;20110;-40
2021/01/06 08:59:26;;;;;;;0.00;0.00;;;16.00;57.00;;;;;;4196279;28;20083;-40
2021/01/06 09:01:50;;;;;;;0.17;0.17;;;16.10;56.70;;;;;;4196528;28;20525;-40
2021/01/06 09:04:17;;;;;;;0.00;0.00;;;16.10;56.70;;;;;;4195971;28;20053;-40
2021/01/06 09:06:49;;;;;;;0.10;0.10;;;16.20;56.70;;;;;;4213464;28;20488;-41
2021/01/06 09:09:33;;;;;;;0.00;0.00;;;16.30;56.50;;;;;;4213103;28;20058;-40
2021/01/06 09:11:55;;;;;;;0.00;0.00;;;16.30;56.40;;;;;;4213011;28;20116;-40
2021/01/06 09:14:28;;;;;;;0.00;0.00;;;16.20;56.50;;;;;;4213083;28;20494;-39
2021/01/06 09:16:52;;;;;;;0.00;0.00;;;16.10;56.80;;;;;;4212192;28;20051;-39
2021/01/06 09:19:19;;;;;;;0.00;0.00;;;16.10;57.10;;;;;;4212838;28;20058;-40
2021/01/06 09:21:42;;;;;;;0.00;0.00;;;16.20;56.80;;;;;;4213582;28;20064;-40
2021/01/06 09:24:10;;;;;;;0.00;0.00;;;16.40;56.40;;;;;;4211481;28;20487;-40
2021/01/06 09:26:32;;;;;;;0.52;0.47;;;16.50;56.20;;;;;;4196295;28;20049;-40
2021/01/06 09:29:01;;;;;;;0.00;0.00;;;16.50;56.10;;;;;;4198316;28;20057;-40
2021/01/06 09:31:22;;;;;;;0.00;0.00;;;16.50;56.30;;;;;;4213174;28;20517;-40
2021/01/06 09:33:45;;;;;;;0.00;0.00;;;16.40;56.50;;;;;;4204926;28;20045;-40
2021/01/06 09:36:08;;;;;;;0.00;0.00;;;16.40;56.60;;;;;;4210445;28;20521;-40
2021/01/06 09:38:35;;;;;;;0.20;0.15;;;16.40;56.40;;;;;;4212757;28;20461;-40
2021/01/06 09:40:59;;;;;;;0.00;0.00;;;16.50;56.40;;;;;;4213570;28;20075;-39
2021/01/06 09:43:29;;;;;;;0.00;0.00;;;16.50;56.40;;;;;;4200329;28;20063;-40
2021/01/06 09:45:50;;;;;;;0.35;0.35;;;16.60;56.30;;;;;;4211268;28;20048;-40
2021/01/06 09:48:14;;;;;;;0.08;0.08;;;16.60;56.20;;;;;;4212343;28;20051;-40
2021/01/06 09:50:38;;;;;;;0.00;0.00;;;16.60;56.40;;;;;;4212273;28;20048;-40
2021/01/06 09:53:04;;;;;;;0.00;0.00;;;16.50;56.60;;;;;;4212779;28;20512;-41
2021/01/06 09:55:28;;;;;;;0.10;0.10;;;16.40;57.00;;;;;;4212646;28;20211;-40
2021/01/06 09:57:54;;;;;;;0.00;0.00;;;16.30;57.30;;;;;;4195871;28;20056;-40
2021/01/06 10:00:36;;;;;;;0.20;0.20;;;16.10;57.50;;;;;;4195732;28;20079;-40
2021/01/06 10:02:57;;;;;;;;;;;16.00;57.90;;;;;;4202847;28;20482;-40
2021/01/06 10:05:23;;;;;;;;;;;15.80;58.40;;;;;;4212009;28;19942;-40
2021/01/06 10:07:49;;;;;;;0.28;0.28;;;15.70;58.70;;;;;;4211499;28;19930;-40
2021/01/06 10:10:16;;;;;;;0.00;0.00;;;15.70;58.80;;;;;;4196347;28;20052;-40
2021/01/06 10:12:55;;;;;;;33.10;0.88;;;15.90;58.20;;;;;;4212974;28;20490;-40
2021/01/06 10:15:32;;;;;;;0.00;0.00;;;16.00;57.70;;;;;;4207443;28;20052;-41
2021/01/06 10:18:11;;;;;;;9.82;0.80;;;16.00;57.60;;;;;;4212401;28;20051;-40
2021/01/06 10:20:38;;;;;;;0.00;0.00;;;16.10;58.40;;;;;;4211968;28;20525;-40
2021/01/06 10:23:16;;;;;;;0.00;0.00;;;16.10;57.50;;;;;;4212718;28;20070;-41
2021/01/06 10:25:45;;;;;;;0.08;0.08;;;16.10;57.50;;;;;;4200764;28;20186;-40
2021/01/06 10:28:12;;;;;;;0.00;0.00;;;16.00;57.70;;;;;;4212748;28;20056;-40
2021/01/06 10:30:33;;;;;;;0.00;0.00;;;16.00;57.90;;;;;;4212321;28;20054;-41
2021/01/06 10:33:18;;;;;;;0.00;0.00;;;15.90;58.20;;;;;;4212595;28;20052;-39
2021/01/06 10:35:46;;;;;;;0.00;0.00;;;15.80;58.50;;;;;;4211250;28;20055;-40
2021/01/06 10:38:33;;;;;;;0.13;0.13;;;15.70;58.80;;;;;;4212000;28;20628;-40
2021/01/06 10:41:09;;;;;;;0.10;0.10;;;15.50;59.10;;;;;;4197486;28;20048;-39
2021/01/06 10:43:45;;;;;;;0.00;0.00;;;15.40;59.40;;;;;;4204111;28;20052;-40
2021/01/06 10:46:40;;;;;;;0.10;0.10;;;15.30;59.80;;;;;;4210984;28;20051;-39
2021/01/06 10:49:04;;;;;;;0.20;0.20;;;15.40;59.70;;;;;;4199094;28;20075;-39
2021/01/06 10:52:00;;;;;;;0.00;0.00;;;15.50;59.40;;;;;;4211762;28;20047;-40
2021/01/06 10:54:30;;;;;;;0.00;0.00;;;15.70;59.00;;;;;;4203744;28;20057;-40
2021/01/06 10:56:56;;;;;;;0.25;0.25;;;15.70;58.70;;;;;;4210133;28;20494;-40
2021/01/06 10:59:17;;;;;;;0.10;0.10;;;15.70;58.60;;;;;;4211357;28;20044;-40
2021/01/06 11:02:05;;;;;;;0.00;0.00;;;15.80;59.10;;;;;;4208846;28;20109;-40
2021/01/06 11:04:53;;;;;;;0.15;0.15;;;15.90;58.00;;;;;;4209597;28;20044;-40
2021/01/06 11:07:25;;;;;;;0.00;0.00;;;15.90;57.70;;;;;;4208300;28;20708;-40
2021/01/06 11:10:13;;;;;;;0.08;0.08;;;15.80;57.80;;;;;;4198866;28;20055;-40
2021/01/06 11:12:47;;;;;;;0.35;0.35;;;15.70;58.00;;;;;;4214921;28;20144;-40
2021/01/06 11:15:30;;;;;;;2.25;0.57;;;15.60;58.30;;;;;;4214858;28;20051;-40
2021/01/06 11:18:33;;;;;;;2.63;1.85;;;15.50;58.40;;;;;;4215177;28;20087;-40
2021/01/06 11:21:09;;;;;;;0.68;0.68;;;15.30;58.50;;;;;;4200400;28;20052;-40
2021/01/06 11:23:56;;;;;;;0.10;0.10;;;15.20;59.00;;;;;;4215311;28;20055;-40
2021/01/06 11:26:52;;;;;;;1.55;0.47;;;15.10;59.20;;;;;;4214941;28;20767;-40
2021/01/06 11:29:22;;;;;;;0.45;0.45;;;14.90;59.60;;;;;;4202644;28;20502;-39
2021/01/06 11:32:05;;;;;;;0.90;0.90;;;14.80;60.00;;;;;;4214041;28;20043;-40
2021/01/06 11:34:31;;;;;;;0.75;0.40;;;14.70;60.30;;;;;;4210403;28;20060;-43
2021/01/06 11:36:55;;;;;;;0.75;0.57;;;14.70;60.70;;;;;;4214321;28;20502;-41
2021/01/06 11:39:47;;;;;;;0.47;0.47;;;14.60;61.20;;;;;;4214334;28;20060;-40
2021/01/06 11:42:11;;;;;;;0.60;0.60;;;14.50;61.50;;;;;;4214190;28;20052;-39
2021/01/06 11:44:37;;;;;;;0.03;0.03;;;14.40;61.70;;;;;;4214446;28;20075;-40
2021/01/06 11:47:27;;;;;;;4.85;1.58;;;14.30;62.00;;;;;;4214016;28;20097;-39
2021/01/06 11:49:55;;;;;;;0.95;0.93;;;14.20;62.40;;;;;;4214396;28;20051;-40
2021/01/06 11:52:38;;;;;;;11.88;3.20;;;14.20;62.90;;;;;;4214783;28;20048;-40
2021/01/06 11:55:20;;;;;;;3.20;2.05;;;14.40;62.40;;;;;;4214200;28;20052;-40
2021/01/06 11:57:50;;;;;;;0.88;0.52;;;14.70;61.60;;;;;;4214728;28;20517;-40
2021/01/06 12:00:47;;;;;;;0.82;0.82;;;14.80;61.10;;;;;;4213863;28;20101;-40
2021/01/06 12:03:28;;;;;;;0.00;0.00;;;14.90;60.70;;;;;;4202549;28;20048;-40
2021/01/06 12:06:02;;;;;;;2.40;1.77;;;14.90;60.50;;;;;;4213953;28;20070;-40
2021/01/06 12:08:28;;;;;;;1.67;1.63;;;14.90;60.40;;;;;;4214228;28;20379;-39
2021/01/06 12:11:03;;;;;;;0.40;0.40;;;14.90;60.80;;;;;;4208395;28;20048;-39
2021/01/06 12:13:33;;;;;;;0.08;0.08;;;14.70;61.20;;;;;;4213319;28;20054;-39
2021/01/06 12:16:08;;;;;;;1.55;1.45;;;14.70;62.00;;;;;;4200871;28;20105;-40
2021/01/06 12:18:40;;;;;;;0.50;0.50;;;14.60;62.20;;;;;;4213243;28;20052;-39
2021/01/06 12:21:01;;;;;;;;;;;14.60;62.60;;;;;;4211375;28;20526;-39
2021/01/06 12:23:43;;;;;;;1.08;1.08;;;14.60;63.00;;;;;;4213256;28;19927;-39
2021/01/06 12:26:40;;;;;;;1.63;0.70;;;14.80;62.90;;;;;;4214351;28;20056;-39
2021/01/06 12:29:07;;;;;;;0.57;0.57;;;15.00;62.40;;;;;;4213366;28;20125;-39
2021/01/06 12:31:41;;;;;;;0.10;0.10;;;15.40;61.90;;;;;;4213761;28;20054;-39
2021/01/06 12:34:06;;;;;;;0.40;0.40;;;15.50;61.70;;;;;;4214161;28;20105;-39
2021/01/06 12:36:30;;;;;;;0.17;0.17;;;15.60;61.60;;;;;;4197369;28;20697;-40
2021/01/06 12:39:13;;;;;;;3.00;0.47;;;15.70;61.20;;;;;;4196807;28;20069;-39
2021/01/06 12:41:49;;;;;;;0.25;0.25;;;15.80;61.00;;;;;;4196992;28;20048;-39
2021/01/06 12:44:19;;;;;;;0.17;0.17;;;15.80;61.00;;;;;;4226263;28;20052;-40
2021/01/06 12:46:45;;;;;;;0.35;0.35;;;15.80;61.30;;;;;;4230622;28;20062;-40
2021/01/06 12:49:28;;;;;;;1.13;1.13;;;15.80;61.40;;;;;;4222291;28;20105;-40
2021/01/06 12:52:12;;;;;;;0.52;0.30;;;15.70;61.30;;;;;;4208679;28;20059;-40
2021/01/06 12:54:39;;;;;;;4.03;1.50;;;15.60;62.00;;;;;;4212806;28;20406;-39